Flight Track Log - Related Links

Times and Time Zones

All times are in EDT time to prevent confusion due to time zone crossing. See the ASQ3807 flight status page for this flight to view local times or setup timezone preferences in your user account.

Time Position Orientation Groundspeed Altitude Reporting Facility
EDT Latitude Longitude Course Direction KTS MPH feet Rate Location/Type
Tue 09:42:17 PM 40.6500 -74.1833 59° Northeast 162 186 1,500  Level New York TRACON
Tue 09:43:23 PM 40.6667 -74.2333 294° West 246 283 3,900 2,000 Climbing New York TRACON
Tue 09:44:17 PM 40.7167 -74.2167 14° North 249 287 5,500 2,027 Climbing New York TRACON
Tue 09:45:51 PM 40.8161 -74.1431 29° Northeast 283 326 8,900 2,065 Climbing Boston Center
Tue 09:46:51 PM 40.8633 -74.0592 53° Northeast 278 320 10,800 1,500 Climbing Boston Center
Tue 09:47:00 PM 40.9716 -73.5792 59° Northeast  Level FlightAware Approximate
Tue 09:47:51 PM 40.9083 -73.9617 59° Northeast 286 329 11,900  Level Boston Center
Tue 09:48:51 PM 40.9517 -73.8472 63° Northeast 317 365 13,000 550 Climbing Boston Center
Tue 09:49:51 PM 41.0031 -73.7108 63° Northeast 339 390 13,000  Level Boston Center
Tue 09:50:51 PM 41.0503 -73.5878 63° Northeast 369 425 13,000  Level Boston Center
Tue 09:51:51 PM 41.0844 -73.5003 63° Northeast 376 433 13,000  Level Boston Center
Tue 09:52:51 PM 41.1483 -73.3414 62° Northeast 376 433 13,000  Level Boston Center
Tue 09:53:51 PM 41.1806 -73.2233 70° East 376 433 13,000  Level Boston Center
Tue 09:54:51 PM 41.1981 -73.0883 80° East 370 426 13,000 -50 Level Boston Center
Tue 09:55:51 PM 41.2156 -72.9561 80° East 364 419 12,900 -50 Descending Boston Center
Tue 09:56:51 PM 41.2328 -72.8239 80° East 364 419 12,900  Level Boston Center
Tue 09:57:51 PM 41.2519 -72.6775 80° East 364 419 12,900  Level Boston Center
Tue 09:58:51 PM 41.2686 -72.5450 80° East 364 419 12,900  Level Boston Center
Tue 09:59:29 PM 41.2792 -72.4622 80° East 369 425 12,900 -400 Level Boston Center
Tue 09:59:51 PM 41.2856 -72.4153 80° East 359 413 12,500 -1,286 Descending Boston Center
Tue 10:00:11 PM 41.2917 -72.3656 81° East 370 426 12,000 -1,300 Descending Boston Center
Tue 10:00:51 PM 41.3000 -72.2936 81° East 359 413 11,200 -1,377 Descending Boston Center
Tue 10:01:12 PM 41.3061 -72.2356 82° East 344 396 10,600 -1,200 Descending Boston Center
Tue 10:01:51 PM 41.3183 -72.1636 77° East 342 394 10,000 -1,300 Descending Boston Center
Tue 10:02:12 PM 41.3225 -72.1278 81° East 294 338 9,300 -2,122 Descending Boston Center
Tue 10:03:13 PM 41.3325 -72.0336 82° East 266 306 7,100 -2,066 Descending Boston Center
Tue 10:04:14 PM 41.3469 -71.9397 78° East 262 302 5,100 -1,041 Descending Boston Center
Tue 10:05:14 PM 41.3964 -71.8700 47° Northeast 261 300 5,000 -50 Descending Boston Center
Tue 10:06:15 PM 41.4503 -71.7919 47° Northeast 257 296 5,000 -50 Level Boston Center
Tue 10:07:15 PM 41.5000 -71.7222 46° Northeast 264 304 4,900 -744 Descending Boston Center
Tue 10:08:16 PM 41.5494 -71.6522 47° Northeast 264 304 3,500 -1,377 Descending Boston Center
Tue 10:09:17 PM 41.5969 -71.5822 48° Northeast 253 291 2,100 -793 Descending Boston Center
Tue 10:10:17 PM 41.6358 -71.5208 50° Northeast 211 243 1,900 -496 Descending Boston Center
Tue 10:11:18 PM 41.6669 -71.4758 47° Northeast 167 192 1,100 -787 Descending Boston Center

Login

Don't have an account? Register now (free) for customized features, flight alerts, and more!